ΕΜΥ, Εθνική Μετεωρολογική Υπηρεσία - Δελτία Καιρού, Προγνώσεις

ΑΕΡΟΝΑΥΤΙΛΙΑ

GREEK AIRPORTS CODES

TAF LGAL 200200Z 2003/2012 VRB03KT 9999 FEW020 BECMG 2004/2006 08010KT BECMG 2010/2012 22010KT=

EUROPEAN AIRPORTS CODES